Terminal Aerodrome Forecast
Issued by NWS Cleveland, OH

Home | Current Version | Previous Version | Graphics & Text | Print | Product List | Glossary On
Versions: 1 2 3 4 5 6 7 8 9 10 11 12 13 14 15
911
FTUS41 KCLE 220920 AAA
TAFTOL
TAF AMD
KTOL 220920Z 2209/2306 00000KT P6SM FEW250
      TEMPO 2209/2210 4SM BR
     FM221000 00000KT 5SM BR SCT250
      TEMPO 2210/2213 2SM BR FEW005
     FM221500 10004KT P6SM SCT045
     FM230000 00000KT P6SM FEW250=

USA.gov is the U.S. government's official web portal to all federal, state and local government web resources and services.